Terminal Aerodrome Forecast
Issued by NWS Memphis, TN

Home | Current Version | Previous Version | Text Only | Print | Product List | Glossary On
Versions: 1 2 3 4 5 6 7 8 9 10 11 12 13 14 15 16 17 18 19 20 21 22 23 24 25 26 27 28 29 30 31 32
000
FTUS44 KMEG 210607 AAH
TAFMKL
TAF AMD
KMKL 210607Z 2106/2206 00000KT 2SM BR FEW250
      TEMPO 2108/2112 4SM BR
     FM211500 20005KT P6SM SCT050 SCT250
     FM220000 VRB03KT P6SM SCT250=

USA.gov is the U.S. government's official web portal to all federal, state and local government web resources and services.